createdAt,value
2018-03-28T00:01:59.934Z,9.65
2018-03-28T00:04:28.422Z,9.65
2018-03-28T00:06:56.742Z,9.65
2018-03-28T00:09:25.086Z,9.67
2018-03-28T00:11:53.409Z,9.73
2018-03-28T00:14:21.827Z,9.73
2018-03-28T00:16:50.142Z,9.69
2018-03-28T00:19:18.489Z,9.72
2018-03-28T00:21:46.873Z,9.60
2018-03-28T00:24:15.147Z,9.64
2018-03-28T00:26:45.537Z,9.66
2018-03-28T00:29:13.958Z,9.72
2018-03-28T00:31:42.277Z,9.79
2018-03-28T00:34:10.625Z,9.77
2018-03-28T00:36:38.955Z,9.77
2018-03-28T00:39:07.304Z,9.79
2018-03-28T00:41:35.622Z,9.84
2018-03-28T00:44:03.962Z,9.79
2018-03-28T00:46:32.283Z,9.77
2018-03-28T00:49:00.627Z,9.72
2018-03-28T00:51:36.750Z,9.67
2018-03-28T00:54:05.096Z,9.56
2018-03-28T00:56:33.487Z,9.67
2018-03-28T00:59:01.831Z,9.74
2018-03-28T01:01:30.158Z,9.70
2018-03-28T01:03:58.497Z,9.63
2018-03-28T01:06:26.818Z,9.70
2018-03-28T01:08:55.162Z,9.69
2018-03-28T01:11:23.481Z,9.69
2018-03-28T01:13:51.821Z,9.76
2018-03-28T01:16:20.158Z,9.68
2018-03-28T01:18:48.462Z,9.73
2018-03-28T01:21:16.807Z,9.64
2018-03-28T01:23:45.121Z,9.73
2018-03-28T01:26:13.461Z,9.73
2018-03-28T01:28:41.775Z,9.75
2018-03-28T01:31:10.122Z,9.80
2018-03-28T01:33:38.442Z,9.83
2018-03-28T01:36:06.782Z,9.86
2018-03-28T01:38:35.144Z,9.91
2018-03-28T01:41:03.466Z,9.86
2018-03-28T01:43:31.790Z,10.68
2018-03-28T01:46:00.139Z,10.26
2018-03-28T01:48:28.462Z,10.18
2018-03-28T01:50:56.813Z,10.18
2018-03-28T01:53:25.139Z,10.14
2018-03-28T01:55:53.490Z,10.10
2018-03-28T01:58:21.813Z,10.11
2018-03-28T02:00:50.162Z,10.17
2018-03-28T02:03:18.485Z,10.16
2018-03-28T02:05:46.833Z,10.16
2018-03-28T02:08:15.161Z,10.13
2018-03-28T02:10:43.515Z,10.17
2018-03-28T02:13:11.842Z,10.19
2018-03-28T02:15:40.194Z,10.15
2018-03-28T02:18:08.523Z,10.15
2018-03-28T02:20:36.875Z,10.15
2018-03-28T02:23:05.198Z,10.22
2018-03-28T02:25:33.559Z,10.26
2018-03-28T02:28:01.892Z,10.17
2018-03-28T02:30:30.239Z,9.95
2018-03-28T02:32:58.562Z,9.83
2018-03-28T02:35:26.902Z,9.74
2018-03-28T02:37:55.222Z,9.72
2018-03-28T02:40:23.571Z,9.79
2018-03-28T02:42:51.900Z,9.87
2018-03-28T02:45:20.229Z,9.92
2018-03-28T02:47:48.550Z,9.95
2018-03-28T02:50:16.895Z,9.96
2018-03-28T02:52:45.214Z,9.94
2018-03-28T02:55:13.559Z,9.96
2018-03-28T02:57:41.885Z,9.90
2018-03-28T03:00:10.230Z,9.86
2018-03-28T03:02:38.550Z,9.87
2018-03-28T03:05:06.898Z,9.85
2018-03-28T03:07:35.214Z,9.89
2018-03-28T03:10:03.550Z,9.86
2018-03-28T03:12:31.890Z,9.75
2018-03-28T03:15:00.226Z,9.59
2018-03-28T03:17:28.565Z,9.53
2018-03-28T03:19:56.888Z,9.51
2018-03-28T03:22:25.231Z,9.53
2018-03-28T03:24:53.551Z,9.57
2018-03-28T03:27:21.889Z,9.61
2018-03-28T03:29:50.210Z,9.64
2018-03-28T03:32:18.554Z,9.48
2018-03-28T03:34:46.878Z,9.44
2018-03-28T03:37:15.218Z,9.31
2018-03-28T03:39:43.538Z,9.42
2018-03-28T03:42:11.874Z,9.41
2018-03-28T03:44:40.198Z,9.49
2018-03-28T03:47:08.545Z,9.51
2018-03-28T03:49:36.867Z,9.47
2018-03-28T03:52:05.214Z,9.37
2018-03-28T03:54:33.529Z,9.43
2018-03-28T03:57:01.880Z,9.43
2018-03-28T03:59:30.198Z,9.40
2018-03-28T04:01:58.542Z,9.25
2018-03-28T04:04:26.865Z,9.23
2018-03-28T04:06:55.218Z,9.31
2018-03-28T04:09:23.536Z,9.27
2018-03-28T04:11:51.880Z,9.23
2018-03-28T04:14:20.202Z,9.16
2018-03-28T04:16:48.542Z,9.14
2018-03-28T04:19:16.862Z,9.20
2018-03-28T04:21:45.202Z,9.27
2018-03-28T04:24:13.522Z,9.30
2018-03-28T04:26:41.861Z,9.24
2018-03-28T04:29:10.181Z,9.29
2018-03-28T04:31:38.531Z,9.18
2018-03-28T04:34:06.846Z,9.25
2018-03-28T04:36:35.194Z,9.26
2018-03-28T04:39:03.510Z,9.24
2018-03-28T04:41:31.853Z,9.29
2018-03-28T04:44:00.174Z,9.25
2018-03-28T04:46:28.518Z,9.22
2018-03-28T04:48:56.839Z,9.27
2018-03-28T04:51:25.173Z,9.25
2018-03-28T04:53:53.490Z,9.21
2018-03-28T04:56:21.829Z,9.15
2018-03-28T04:58:50.149Z,9.13
2018-03-28T05:01:18.493Z,9.13
2018-03-28T05:03:46.810Z,9.11
2018-03-28T05:06:15.150Z,9.14
2018-03-28T05:08:43.472Z,9.20
2018-03-28T05:11:11.813Z,9.26
2018-03-28T05:13:40.134Z,9.26
2018-03-28T05:16:08.473Z,9.28
2018-03-28T05:18:36.814Z,9.29
2018-03-28T05:21:05.133Z,9.25
2018-03-28T05:23:33.491Z,9.18
2018-03-28T05:26:02.106Z,9.20
2018-03-28T05:28:31.622Z,9.19
2018-03-28T05:31:00.007Z,9.16
2018-03-28T05:33:28.350Z,9.23
2018-03-28T05:35:56.677Z,9.00
2018-03-28T05:38:25.019Z,8.99
2018-03-28T05:40:53.339Z,8.96
2018-03-28T05:43:21.696Z,8.92
2018-03-28T05:45:50.010Z,9.02
2018-03-28T05:48:18.354Z,9.10
2018-03-28T05:50:46.680Z,8.92
2018-03-28T05:53:15.053Z,9.02
2018-03-28T05:55:43.600Z,9.03
2018-03-28T05:58:12.023Z,8.82
2018-03-28T06:00:40.350Z,8.86
2018-03-28T06:03:08.694Z,8.75
2018-03-28T06:05:37.022Z,8.94
2018-03-28T06:08:05.914Z,9.04
2018-03-28T06:10:34.254Z,9.15
2018-03-28T06:13:02.665Z,9.04
2018-03-28T06:15:30.930Z,8.91
2018-03-28T06:17:59.278Z,9.02
2018-03-28T06:20:27.674Z,8.84
2018-03-28T06:22:56.014Z,8.78
2018-03-28T06:25:24.390Z,8.95
2018-03-28T06:27:52.735Z,8.98
2018-03-28T06:30:21.449Z,9.00
2018-03-28T06:32:49.870Z,9.14
2018-03-28T06:35:18.627Z,9.24
2018-03-28T06:37:47.015Z,9.18
2018-03-28T06:40:16.198Z,9.06
2018-03-28T06:42:44.542Z,9.16
2018-03-28T06:45:12.866Z,9.19
2018-03-28T06:47:41.214Z,9.24
2018-03-28T06:50:09.546Z,9.17
2018-03-28T06:52:37.893Z,9.15
2018-03-28T06:55:06.224Z,9.14
2018-03-28T06:57:34.559Z,8.89
2018-03-28T07:00:02.886Z,8.96
2018-03-28T07:02:31.245Z,9.04
2018-03-28T07:04:59.570Z,9.05
2018-03-28T07:07:28.086Z,9.02
2018-03-28T07:09:56.451Z,9.09
2018-03-28T07:12:25.152Z,9.02
2018-03-28T07:14:53.473Z,8.93
2018-03-28T07:17:21.814Z,9.01
2018-03-28T07:19:50.138Z,9.14
2018-03-28T07:22:18.462Z,9.20
2018-03-28T07:24:46.806Z,9.10
2018-03-28T07:27:15.129Z,9.19
2018-03-28T07:29:43.474Z,9.22
2018-03-28T07:32:11.793Z,9.29
2018-03-28T07:34:40.134Z,9.26
2018-03-28T07:37:08.455Z,9.30
2018-03-28T07:39:36.802Z,9.35
2018-03-28T07:42:05.125Z,9.43
2018-03-28T07:44:33.463Z,9.38
2018-03-28T07:47:01.782Z,9.43
2018-03-28T07:49:30.126Z,9.47
2018-03-28T07:51:58.449Z,9.56
2018-03-28T07:54:26.791Z,9.52
2018-03-28T07:56:55.116Z,9.52
2018-03-28T07:59:23.463Z,9.58
2018-03-28T08:01:51.786Z,9.68
2018-03-28T08:04:20.122Z,9.65
2018-03-28T08:06:48.446Z,9.58
2018-03-28T08:09:16.790Z,9.70
2018-03-28T08:11:45.114Z,9.76
2018-03-28T08:14:13.457Z,9.78
2018-03-28T08:16:41.785Z,9.80
2018-03-28T08:19:10.172Z,9.81
2018-03-28T08:21:38.457Z,9.87
2018-03-28T08:24:06.806Z,9.87
2018-03-28T08:26:35.126Z,9.90
2018-03-28T08:29:03.467Z,9.90
2018-03-28T08:31:31.790Z,9.89
2018-03-28T08:34:00.134Z,9.92
2018-03-28T08:36:28.456Z,9.89
2018-03-28T08:38:56.806Z,9.89
2018-03-28T08:41:25.135Z,9.85
2018-03-28T08:43:54.290Z,9.90
2018-03-28T08:46:23.591Z,9.95
2018-03-28T08:48:51.938Z,9.90
2018-03-28T08:51:20.259Z,9.92
2018-03-28T08:53:48.602Z,9.97
2018-03-28T08:56:17.957Z,9.99
2018-03-28T08:58:46.303Z,9.94
2018-03-28T09:01:14.626Z,9.90
2018-03-28T09:03:42.973Z,9.95
2018-03-28T09:06:11.366Z,9.97
2018-03-28T09:08:39.707Z,9.96
2018-03-28T09:11:08.026Z,9.89
2018-03-28T09:13:36.370Z,9.99
2018-03-28T09:16:04.694Z,9.95
2018-03-28T09:18:33.055Z,10.05
2018-03-28T09:21:01.377Z,10.03
2018-03-28T09:23:29.749Z,10.04
2018-03-28T09:25:58.118Z,10.08
2018-03-28T09:28:26.442Z,10.03
2018-03-28T09:30:54.785Z,9.95
2018-03-28T09:33:23.111Z,10.05
2018-03-28T09:35:51.640Z,10.15
2018-03-28T09:38:19.958Z,10.21
2018-03-28T09:40:48.327Z,10.26
2018-03-28T09:43:17.179Z,10.26
2018-03-28T09:45:45.534Z,10.26
2018-03-28T09:48:13.934Z,10.36
2018-03-28T09:50:42.291Z,10.38
2018-03-28T09:53:10.622Z,10.43
2018-03-28T09:55:39.141Z,10.39
2018-03-28T09:58:07.625Z,10.39
2018-03-28T10:00:35.982Z,10.39
2018-03-28T10:03:09.970Z,10.42
2018-03-28T10:05:39.157Z,10.47
2018-03-28T10:08:08.318Z,10.50
2018-03-28T10:10:36.685Z,10.37
2018-03-28T10:13:05.019Z,10.32
2018-03-28T10:15:33.366Z,10.44
2018-03-28T10:18:01.768Z,10.54
2018-03-28T10:20:30.051Z,10.57
2018-03-28T10:22:58.382Z,10.72
2018-03-28T10:25:26.722Z,10.81
2018-03-28T10:27:55.059Z,10.95
2018-03-28T10:30:23.414Z,11.11
2018-03-28T10:32:51.762Z,11.20
2018-03-28T10:35:20.094Z,11.30
2018-03-28T10:37:48.425Z,11.44
2018-03-28T10:40:16.783Z,11.48
2018-03-28T10:42:45.121Z,11.53
2018-03-28T10:45:13.474Z,12.45
2018-03-28T10:47:41.802Z,12.25
2018-03-28T10:50:10.145Z,12.69
2018-03-28T10:52:38.482Z,12.83
2018-03-28T10:55:06.836Z,12.60
2018-03-28T10:57:35.170Z,12.45
2018-03-28T11:00:03.513Z,12.24
2018-03-28T11:02:31.847Z,12.04
2018-03-28T11:05:00.202Z,11.91
2018-03-28T11:07:28.530Z,11.98
2018-03-28T11:09:56.878Z,12.02
2018-03-28T11:12:25.215Z,11.92
2018-03-28T11:14:53.570Z,11.88
2018-03-28T11:17:21.908Z,11.94
2018-03-28T11:19:50.263Z,11.94
2018-03-28T11:22:18.594Z,12.01
2018-03-28T11:24:46.938Z,12.13
2018-03-28T11:27:15.275Z,12.18
2018-03-28T11:29:43.626Z,12.32
2018-03-28T11:32:11.949Z,12.46
2018-03-28T11:34:40.288Z,12.40
2018-03-28T11:37:08.638Z,12.44
2018-03-28T11:39:36.971Z,12.58
2018-03-28T11:42:05.317Z,12.63
2018-03-28T11:44:33.647Z,12.70
2018-03-28T11:47:01.995Z,12.75
2018-03-28T11:49:30.325Z,12.83
2018-03-28T11:51:58.695Z,12.96
2018-03-28T11:54:27.021Z,12.97
2018-03-28T11:56:55.376Z,12.95
2018-03-28T11:59:23.707Z,13.05
2018-03-28T12:01:52.051Z,13.01
2018-03-28T12:04:20.641Z,12.97
2018-03-28T12:06:48.989Z,12.97
2018-03-28T12:09:17.318Z,13.01
2018-03-28T12:11:45.670Z,13.00
2018-03-28T12:14:14.041Z,13.11
2018-03-28T12:16:42.369Z,13.25
2018-03-28T12:19:10.701Z,13.24
2018-03-28T12:21:39.055Z,13.25
2018-03-28T12:24:07.383Z,13.28
2018-03-28T12:26:35.734Z,13.18
2018-03-28T12:29:04.081Z,13.20
2018-03-28T12:31:32.418Z,13.22
2018-03-28T12:34:00.747Z,13.19
2018-03-28T12:36:29.095Z,13.23
2018-03-28T12:38:57.425Z,13.24
2018-03-28T12:41:25.774Z,13.19
2018-03-28T12:43:54.102Z,13.08
2018-03-28T12:46:22.450Z,13.16
2018-03-28T12:48:50.778Z,13.15
2018-03-28T12:51:19.130Z,13.14
2018-03-28T12:53:47.470Z,13.29
2018-03-28T12:56:15.837Z,13.44
2018-03-28T12:58:44.173Z,13.51
2018-03-28T13:01:12.578Z,13.45
2018-03-28T13:03:40.898Z,13.46
2018-03-28T13:06:09.246Z,13.47
2018-03-28T13:08:37.582Z,13.42
2018-03-28T13:11:05.936Z,13.48
2018-03-28T13:13:34.258Z,13.47
2018-03-28T13:16:02.613Z,13.51
2018-03-28T13:18:30.943Z,13.50
2018-03-28T13:20:59.304Z,13.51
2018-03-28T13:23:27.642Z,13.56
2018-03-28T13:25:55.998Z,13.66
2018-03-28T13:28:24.330Z,13.74
2018-03-28T13:30:52.682Z,13.70
2018-03-28T13:33:21.012Z,13.56
2018-03-28T13:35:49.339Z,13.61
2018-03-28T13:38:17.687Z,13.67
2018-03-28T13:40:46.507Z,13.70
2018-03-28T13:43:14.854Z,13.72
2018-03-28T13:45:43.192Z,13.69
2018-03-28T13:48:11.542Z,13.53
2018-03-28T13:50:39.886Z,13.43
2018-03-28T13:53:08.230Z,13.23
2018-03-28T13:55:36.866Z,13.12
2018-03-28T13:58:05.218Z,13.05
2018-03-28T14:00:33.548Z,12.99
2018-03-28T14:03:01.900Z,12.77
2018-03-28T14:05:30.230Z,12.65
2018-03-28T14:07:58.576Z,12.62
2018-03-28T14:10:26.911Z,12.52
2018-03-28T14:12:55.262Z,12.56
2018-03-28T14:15:23.589Z,12.44
2018-03-28T14:17:51.933Z,12.45
2018-03-28T14:20:20.267Z,12.45
2018-03-28T14:22:48.618Z,12.48
2018-03-28T14:25:16.961Z,12.64
2018-03-28T14:27:45.298Z,12.61
2018-03-28T14:30:13.637Z,12.62
2018-03-28T14:32:41.982Z,12.68
2018-03-28T14:35:10.310Z,12.64
2018-03-28T14:37:38.687Z,12.56
2018-03-28T14:40:07.010Z,12.47
2018-03-28T14:42:35.937Z,12.47
2018-03-28T14:45:04.249Z,12.47
2018-03-28T14:47:32.626Z,12.40
2018-03-28T14:50:01.130Z,13.05
2018-03-28T14:52:29.689Z,12.92
2018-03-28T14:54:58.069Z,12.79
2018-03-28T14:57:26.412Z,12.89
2018-03-28T14:59:54.837Z,12.86
2018-03-28T15:02:23.211Z,12.85
2018-03-28T15:04:51.563Z,12.82
2018-03-28T15:07:19.982Z,12.79
2018-03-28T15:09:48.351Z,12.73
2018-03-28T15:12:16.745Z,12.69
2018-03-28T15:14:45.081Z,12.72
2018-03-28T15:17:13.744Z,12.81
2018-03-28T15:19:42.170Z,12.81
2018-03-28T15:22:10.617Z,13.14
2018-03-28T15:24:38.989Z,13.04
2018-03-28T15:27:08.349Z,12.86
2018-03-28T15:29:36.710Z,12.75
2018-03-28T15:32:05.086Z,12.63
2018-03-28T15:34:33.542Z,12.48
2018-03-28T15:37:01.943Z,12.38
2018-03-28T15:39:30.397Z,12.40
2018-03-28T15:41:58.704Z,12.36
2018-03-28T15:44:27.046Z,12.33
2018-03-28T15:46:55.503Z,12.27
2018-03-28T15:49:23.938Z,12.35
2018-03-28T15:51:52.288Z,12.25
2018-03-28T15:54:20.695Z,12.26
2018-03-28T15:56:49.962Z,12.31
2018-03-28T15:59:18.927Z,12.43
2018-03-28T16:01:47.600Z,12.50
2018-03-28T16:04:16.714Z,12.47
2018-03-28T16:06:45.443Z,12.47
2018-03-28T16:09:14.678Z,12.52
2018-03-28T16:11:43.434Z,12.46
2018-03-28T16:14:13.334Z,12.46
2018-03-28T16:16:41.974Z,12.35
2018-03-28T16:19:10.714Z,12.14
2018-03-28T16:21:39.521Z,12.13
2018-03-28T16:24:08.363Z,12.11
2018-03-28T16:26:37.022Z,12.01
2018-03-28T16:29:05.731Z,11.92
2018-03-28T16:31:35.238Z,11.72
2018-03-28T16:34:03.922Z,11.66
2018-03-28T16:36:33.148Z,11.56
2018-03-28T16:39:01.816Z,11.58
2018-03-28T16:41:30.546Z,11.33
2018-03-28T16:43:59.207Z,11.28
2018-03-28T16:46:28.366Z,11.32
2018-03-28T16:48:57.659Z,11.32
2018-03-28T16:51:26.295Z,11.16
2018-03-28T16:53:55.093Z,11.05
2018-03-28T16:56:23.777Z,11.00
2018-03-28T16:58:53.423Z,10.91
2018-03-28T17:01:22.135Z,10.77
2018-03-28T17:03:50.822Z,10.75
2018-03-28T17:06:19.494Z,10.71
2018-03-28T17:08:47.895Z,10.61
2018-03-28T17:11:16.234Z,10.56
2018-03-28T17:13:44.566Z,10.34
2018-03-28T17:16:12.926Z,10.27
2018-03-28T17:18:41.247Z,10.22
2018-03-28T17:21:09.594Z,10.17
2018-03-28T17:23:37.918Z,10.06
2018-03-28T17:26:06.266Z,10.04
2018-03-28T17:28:34.603Z,10.04
2018-03-28T17:31:02.958Z,10.00
2018-03-28T17:33:31.286Z,9.99
2018-03-28T17:35:59.634Z,9.90
2018-03-28T17:38:27.977Z,9.80
2018-03-28T17:40:56.311Z,9.69
2018-03-28T17:43:24.649Z,9.67
2018-03-28T17:45:52.970Z,9.65
2018-03-28T17:48:21.314Z,9.59
2018-03-28T17:50:49.641Z,9.57
2018-03-28T17:53:17.991Z,9.57
2018-03-28T17:55:46.310Z,9.61
2018-03-28T17:58:14.654Z,9.57
2018-03-28T18:00:43.206Z,9.47
2018-03-28T18:03:11.554Z,9.49
2018-03-28T18:05:39.884Z,9.44
2018-03-28T18:08:08.226Z,9.39
2018-03-28T18:10:36.549Z,9.45
2018-03-28T18:13:04.898Z,9.48
2018-03-28T18:15:33.222Z,9.42
2018-03-28T18:18:01.568Z,9.39
2018-03-28T18:20:30.818Z,9.28
2018-03-28T18:22:59.167Z,9.29
2018-03-28T18:25:27.490Z,9.77
2018-03-28T18:27:55.833Z,10.90
2018-03-28T18:30:24.165Z,10.90
2018-03-28T18:32:52.518Z,10.43
2018-03-28T18:35:20.852Z,10.09
2018-03-28T18:37:49.199Z,9.84
2018-03-28T18:40:17.514Z,9.70
2018-03-28T18:42:45.874Z,9.67
2018-03-28T18:45:14.191Z,9.49
2018-03-28T18:47:42.517Z,9.43
2018-03-28T18:50:10.858Z,9.44
2018-03-28T18:52:39.187Z,9.42
2018-03-28T18:55:07.526Z,9.39
2018-03-28T18:57:35.854Z,9.40
2018-03-28T19:00:04.199Z,9.41
2018-03-28T19:02:32.528Z,9.47
2018-03-28T19:05:01.681Z,9.46
2018-03-28T19:07:30.001Z,9.62
2018-03-28T19:09:58.350Z,9.70
2018-03-28T19:12:26.681Z,9.70
2018-03-28T19:14:55.044Z,9.64
2018-03-28T19:17:23.349Z,9.64
2018-03-28T19:19:51.696Z,9.54
2018-03-28T19:22:20.021Z,9.50
2018-03-28T19:24:48.366Z,9.47
2018-03-28T19:27:16.686Z,9.46
2018-03-28T19:29:45.034Z,9.47
2018-03-28T19:32:13.354Z,9.56
2018-03-28T19:34:41.714Z,9.61
2018-03-28T19:37:10.037Z,9.59
2018-03-28T19:39:38.381Z,9.52
2018-03-28T19:42:06.706Z,9.54
2018-03-28T19:44:35.058Z,9.54
2018-03-28T19:47:03.378Z,9.53
2018-03-28T19:49:31.722Z,9.43
2018-03-28T19:52:00.042Z,9.40
2018-03-28T19:54:28.381Z,9.40
2018-03-28T19:56:56.705Z,9.38
2018-03-28T19:59:25.051Z,9.26
2018-03-28T20:01:53.398Z,9.22
2018-03-28T20:06:56.378Z,9.23
2018-03-28T20:09:24.719Z,9.21
2018-03-28T20:11:53.043Z,9.19
2018-03-28T20:14:21.389Z,9.26
2018-03-28T20:16:49.714Z,9.23
2018-03-28T20:19:18.062Z,9.26
2018-03-28T20:21:46.377Z,9.30
2018-03-28T20:24:14.719Z,9.38
2018-03-28T20:26:43.041Z,9.43
2018-03-28T20:29:11.385Z,9.44
2018-03-28T20:31:39.714Z,9.40
2018-03-28T20:34:08.058Z,9.41
2018-03-28T20:36:36.386Z,9.47
2018-03-28T20:39:04.730Z,9.42
2018-03-28T20:41:33.050Z,9.49
2018-03-28T20:44:01.647Z,9.52
2018-03-28T20:46:30.097Z,9.54
2018-03-28T20:48:58.446Z,9.57
2018-03-28T20:51:26.773Z,9.50
2018-03-28T20:53:55.790Z,9.54
2018-03-28T20:56:24.270Z,9.57
2018-03-28T20:58:52.834Z,9.61
2018-03-28T21:01:21.408Z,9.50
2018-03-28T21:03:49.852Z,9.53
2018-03-28T21:06:18.411Z,9.45
2018-03-28T21:08:46.730Z,9.32
2018-03-28T21:11:15.098Z,9.37
2018-03-28T21:13:43.445Z,9.50
2018-03-28T21:16:12.374Z,9.52
2018-03-28T21:18:40.694Z,9.48
2018-03-28T21:21:09.037Z,9.44
2018-03-28T21:23:37.363Z,9.32
2018-03-28T21:26:05.710Z,9.31
2018-03-28T21:28:34.073Z,9.12
2018-03-28T21:31:02.394Z,9.06
2018-03-28T21:33:30.715Z,8.93
2018-03-28T21:35:59.062Z,9.05
2018-03-28T21:38:27.382Z,9.09
2018-03-28T21:40:55.739Z,9.04
2018-03-28T21:43:24.055Z,9.08
2018-03-28T21:45:52.402Z,9.09
2018-03-28T21:48:20.732Z,9.20
2018-03-28T21:50:49.082Z,9.25
2018-03-28T21:53:17.410Z,9.38
2018-03-28T21:55:45.749Z,9.43
2018-03-28T21:58:14.072Z,9.44
2018-03-28T22:00:42.423Z,9.43
2018-03-28T22:03:10.762Z,9.38
2018-03-28T22:05:39.242Z,9.22
2018-03-28T22:08:07.550Z,9.23
2018-03-28T22:10:35.901Z,9.24
2018-03-28T22:13:04.221Z,9.26
2018-03-28T22:15:32.562Z,9.33
2018-03-28T22:18:00.887Z,9.32
2018-03-28T22:20:29.232Z,9.32
2018-03-28T22:22:57.553Z,9.29
2018-03-28T22:25:25.902Z,9.17
2018-03-28T22:27:54.226Z,9.14
2018-03-28T22:30:22.566Z,9.06
2018-03-28T22:32:50.890Z,8.92
2018-03-28T22:35:19.431Z,8.85
2018-03-28T22:37:47.742Z,8.69
2018-03-28T22:40:16.084Z,8.60
2018-03-28T22:42:44.402Z,8.58
2018-03-28T22:45:12.760Z,8.44
2018-03-28T22:47:41.087Z,8.31
2018-03-28T22:50:09.408Z,8.19
2018-03-28T22:52:37.763Z,8.05
2018-03-28T22:55:06.938Z,7.94
2018-03-28T22:57:35.286Z,7.88
2018-03-28T23:00:03.615Z,7.84
2018-03-28T23:02:31.681Z,7.79
2018-03-28T23:05:00.005Z,7.66
2018-03-28T23:07:28.350Z,7.54
2018-03-28T23:09:56.686Z,7.54
2018-03-28T23:12:25.034Z,7.52
2018-03-28T23:14:53.749Z,7.52
2018-03-28T23:17:22.091Z,7.44
2018-03-28T23:19:50.407Z,7.42
2018-03-28T23:22:30.506Z,7.38
2018-03-28T23:24:58.826Z,7.34
2018-03-28T23:27:27.166Z,7.38
2018-03-28T23:29:55.486Z,7.32
2018-03-28T23:32:23.822Z,7.39
2018-03-28T23:34:52.159Z,7.42
2018-03-28T23:37:20.504Z,7.30
2018-03-28T23:39:48.836Z,7.28
2018-03-28T23:42:17.202Z,7.30
2018-03-28T23:44:45.496Z,7.31
2018-03-28T23:47:14.782Z,7.15
2018-03-28T23:49:43.096Z,7.17
2018-03-28T23:52:11.422Z,7.05
2018-03-28T23:54:39.730Z,7.09
2018-03-28T23:57:08.062Z,7.06
2018-03-28T23:59:36.370Z,7.10
